CheckWX is a tool to help pilots better visualize weather data.  It is not intended as a substitute for an official pre-flight weather briefing.

01:47:22 UTC

KMEB METAR
Laurinburg-Maxton Airport
Maxton, North Carolina, USA
Current

55 mins ago

KMEB 160052Z AUTO 16003KT 10SM CLR 07/05 A3017 RMK AO2 SLP219 T00720050
Observed
Dec-16 @ 00:52 UTC
Wind
  • 160° at 3 KTS
Visibility
10 SM
Flight Rules
VFR
Cloud Levels
  • Clear skies
Temperature
C / 45°F
Dewpoint
C / 41°F
Humidity
87%
Altimeter
30.17" Hg
Pressure
1021.72 hPa
Previous

2 hours ago

KMEB 152352Z AUTO 00000KT 10SM CLR 08/05 A3017 RMK AO2 SLP216 T00780050 10167 20078 53016
Observed
Dec-15 @ 23:52 UTC
Visibility
10 SM
Flight Rules
VFR
Cloud Levels
  • Clear skies
Temperature
C / 46°F
Dewpoint
C / 41°F
Humidity
82%
Altimeter
30.17" Hg
Pressure
1021.72 hPa
Previous

3 hours ago

KMEB 152252Z AUTO 00000KT 10SM CLR 11/05 A3015 RMK AO2 SLP209 T01060050
Observed
Dec-15 @ 22:52 UTC
Visibility
10 SM
Flight Rules
VFR
Cloud Levels
  • Clear skies
Temperature
11°C / 52°F
Dewpoint
C / 41°F
Humidity
67%
Altimeter
30.15" Hg
Pressure
1021.02 hPa